createdAt,value
2023-09-08T00:01:58.462Z,58.93
2023-09-08T00:32:01.368Z,62.71
2023-09-08T01:02:06.012Z,57.04
2023-09-08T01:32:09.006Z,63.30
2023-09-08T02:02:13.140Z,60.97
2023-09-08T02:32:16.364Z,58.39
2023-09-08T03:02:19.700Z,66.21
2023-09-08T03:32:23.547Z,59.32
2023-09-08T04:02:28.372Z,58.08
2023-09-08T04:32:31.746Z,63.88
2023-09-08T05:02:36.755Z,61.38
2023-09-08T05:32:40.159Z,59.29
2023-09-08T06:02:43.589Z,60.96
2023-09-08T06:32:47.502Z,64.48
2023-09-08T07:02:50.914Z,67.39
2023-09-08T07:32:54.965Z,59.79
2023-09-08T08:02:58.204Z,64.34
2023-09-08T08:33:02.279Z,62.59
2023-09-08T09:03:14.768Z,58.98
2023-09-08T09:33:19.212Z,60.54
2023-09-08T10:03:23.585Z,58.29
2023-09-08T10:33:26.633Z,55.55
2023-09-08T11:03:30.680Z,53.62
2023-09-08T11:33:33.896Z,50.88
2023-09-08T12:03:38.835Z,48.65
2023-09-08T12:33:41.797Z,48.42
2023-09-08T13:03:45.828Z,46.08
2023-09-08T13:33:48.717Z,46.05
2023-09-08T14:33:58.737Z,46.36
2023-09-08T15:04:02.760Z,46.39
2023-09-08T15:34:06.004Z,47.19
2023-09-08T16:04:09.347Z,49.37
2023-09-08T16:34:12.855Z,54.05
2023-09-08T17:04:17.223Z,57.38
2023-09-08T17:34:21.093Z,59.13
2023-09-08T18:04:25.250Z,58.67
2023-09-08T18:34:28.595Z,59.44
2023-09-08T19:04:31.913Z,58.04
2023-09-08T19:34:34.803Z,59.95
2023-09-08T20:04:39.436Z,64.39
2023-09-08T20:34:42.396Z,61.66
2023-09-08T21:04:47.411Z,55.80
2023-09-08T21:34:50.297Z,62.83
2023-09-08T22:04:53.812Z,56.73
2023-09-08T22:34:56.899Z,61.61
2023-09-08T23:05:01.499Z,58.46
2023-09-08T23:35:04.571Z,64.47
